SAS0377 EKCH-LOWW
Flight info
| Callsign | SAS0377 |
|---|---|
| Flight time | 1h 25m |
| Altitude | 37000 |
| Route | SALLO M44 KOGIM M602 USEDU DCT LUROS M725 HDO DCT EVIKU DCT BITSI DCT MIKOV MIKOV8W |
| Aircraft | A320/M-SDE3FGHIJ1RWXYZ/ALB1 |
Departure
| Time | 2026-05-04 08:06 |
|---|---|
| Airport | Copenhagen Kastrup Airport (EKCH) |
Arrival
| Time | 2026-05-04 09:31 |
|---|---|
| Airport | Vienna International Airport (LOWW) |
| Time | Latitude | Longitude | Altitude | Speed | Heading |
|---|---|---|---|---|---|
| 2026-05-04 07:27 | 55.62712 | 12.65401 | 27 ft | 0 kts | 29° |
| 2026-05-04 07:54 | 55.62623 | 12.65319 | 25 ft | 2 kts | 359° |
| 2026-05-04 07:55 | 55.62604 | 12.65320 | 25 ft | 1 kts | 359° |
| 2026-05-04 07:55 | 55.62603 | 12.65320 | 25 ft | 0 kts | 359° |
| 2026-05-04 07:59 | 55.62610 | 12.65320 | 26 ft | 2 kts | 359° |
| 2026-05-04 07:59 | 55.62633 | 12.65316 | 26 ft | 5 kts | 347° |
| 2026-05-04 08:00 | 55.62656 | 12.65263 | 24 ft | 7 kts | 282° |
| 2026-05-04 08:00 | 55.62630 | 12.65186 | 24 ft | 9 kts | 207° |
| 2026-05-04 08:00 | 55.62560 | 12.65182 | 24 ft | 11 kts | 178° |
| 2026-05-04 08:02 | 55.62349 | 12.64795 | 24 ft | 11 kts | 246° |
| 2026-05-04 08:02 | 55.62313 | 12.64655 | 24 ft | 14 kts | 246° |
| 2026-05-04 08:02 | 55.62270 | 12.64482 | 23 ft | 16 kts | 246° |
| 2026-05-04 08:03 | 55.62208 | 12.64351 | 21 ft | 16 kts | 206° |
| 2026-05-04 08:03 | 55.62107 | 12.64265 | 25 ft | 17 kts | 205° |
| 2026-05-04 08:03 | 55.61993 | 12.64171 | 24 ft | 19 kts | 206° |
| 2026-05-04 08:03 | 55.61885 | 12.64082 | 24 ft | 12 kts | 205° |
| 2026-05-04 08:04 | 55.61795 | 12.64076 | 24 ft | 14 kts | 175° |
| 2026-05-04 08:04 | 55.61753 | 12.64081 | 27 ft | 0 kts | 176° |
| 2026-05-04 08:05 | 55.61727 | 12.64084 | 25 ft | 10 kts | 176° |
| 2026-05-04 08:05 | 55.61649 | 12.64089 | 27 ft | 11 kts | 188° |
| 2026-05-04 08:05 | 55.61577 | 12.63996 | 30 ft | 21 kts | 221° |
| 2026-05-04 08:06 | 55.61305 | 12.63574 | 26 ft | 85 kts | 221° |
| 2026-05-04 08:06 | 55.60716 | 12.62661 | 27 ft | 137 kts | 221° |
| 2026-05-04 08:06 | 55.59910 | 12.61412 | 183 ft | 165 kts | 225° |
| 2026-05-04 08:06 | 55.59046 | 12.60087 | 875 ft | 164 kts | 227° |
| 2026-05-04 08:08 | 55.49455 | 12.51687 | 5172 ft | 266 kts | 202° |
| 2026-05-04 08:08 | 55.47696 | 12.50773 | 6087 ft | 272 kts | 194° |
| 2026-05-04 08:10 | 55.34280 | 12.68847 | 11552 ft | 351 kts | 141° |
| 2026-05-04 08:11 | 55.32524 | 12.71772 | 12273 ft | 354 kts | 141° |
| 2026-05-04 08:11 | 55.28913 | 12.77766 | 13732 ft | 360 kts | 141° |
| 2026-05-04 08:11 | 55.27084 | 12.80790 | 14366 ft | 363 kts | 142° |
| 2026-05-04 08:12 | 55.25237 | 12.83843 | 14987 ft | 367 kts | 142° |
| 2026-05-04 08:12 | 55.23389 | 12.86896 | 15604 ft | 370 kts | 142° |
| 2026-05-04 08:12 | 55.21507 | 12.89997 | 16225 ft | 373 kts | 143° |
| 2026-05-04 08:12 | 55.19607 | 12.93121 | 16832 ft | 377 kts | 143° |
| 2026-05-04 08:13 | 55.17686 | 12.96270 | 17447 ft | 380 kts | 143° |
| 2026-05-04 08:13 | 55.15751 | 12.99440 | 18074 ft | 383 kts | 143° |
| 2026-05-04 08:13 | 55.13797 | 13.02638 | 18635 ft | 386 kts | 143° |
| 2026-05-04 08:13 | 55.11830 | 13.05858 | 19227 ft | 388 kts | 143° |
| 2026-05-04 08:14 | 55.09852 | 13.09091 | 19820 ft | 391 kts | 143° |
| 2026-05-04 08:14 | 55.07889 | 13.12297 | 20423 ft | 393 kts | 143° |
| 2026-05-04 08:14 | 55.05889 | 13.15557 | 21003 ft | 394 kts | 144° |
| 2026-05-04 08:16 | 54.91166 | 13.37639 | 24559 ft | 397 kts | 163° |
| 2026-05-04 08:16 | 54.88607 | 13.39284 | 24971 ft | 390 kts | 173° |
| 2026-05-04 08:16 | 54.85956 | 13.40175 | 25382 ft | 387 kts | 179° |
| 2026-05-04 08:17 | 54.83287 | 13.40878 | 25800 ft | 390 kts | 179° |
| 2026-05-04 08:17 | 54.80593 | 13.41591 | 26212 ft | 392 kts | 179° |
| 2026-05-04 08:17 | 54.77888 | 13.42314 | 26574 ft | 395 kts | 179° |
| 2026-05-04 08:17 | 54.75162 | 13.43046 | 26942 ft | 398 kts | 179° |
| 2026-05-04 08:19 | 54.55552 | 13.48287 | 29495 ft | 417 kts | 179° |
| 2026-05-04 08:19 | 54.52679 | 13.49052 | 29844 ft | 420 kts | 179° |
| 2026-05-04 08:20 | 54.49781 | 13.49816 | 30114 ft | 423 kts | 180° |
| 2026-05-04 08:20 | 54.46858 | 13.50567 | 30364 ft | 426 kts | 180° |
| 2026-05-04 08:20 | 54.43916 | 13.51307 | 30681 ft | 428 kts | 179° |
| 2026-05-04 08:20 | 54.40964 | 13.52044 | 31029 ft | 429 kts | 179° |
| 2026-05-04 08:21 | 54.38055 | 13.52776 | 31484 ft | 426 kts | 179° |
| 2026-05-04 08:21 | 54.35135 | 13.53518 | 32031 ft | 422 kts | 179° |
| 2026-05-04 08:21 | 54.32256 | 13.54505 | 32591 ft | 425 kts | 171° |
| 2026-05-04 08:21 | 54.29466 | 13.56300 | 33158 ft | 431 kts | 162° |
| 2026-05-04 08:22 | 54.26794 | 13.58594 | 33733 ft | 428 kts | 161° |
| 2026-05-04 08:22 | 54.24157 | 13.60866 | 34245 ft | 423 kts | 161° |
| 2026-05-04 08:24 | 54.06369 | 13.78798 | 36215 ft | 441 kts | 142° |
| 2026-05-04 08:24 | 54.04149 | 13.82411 | 36472 ft | 441 kts | 142° |
| 2026-05-04 08:24 | 54.01923 | 13.86017 | 36693 ft | 443 kts | 142° |
| 2026-05-04 08:24 | 53.99680 | 13.89620 | 36894 ft | 443 kts | 144° |
| 2026-05-04 08:25 | 53.94634 | 13.95072 | 36941 ft | 427 kts | 164° |
| 2026-05-04 08:25 | 53.88972 | 13.97341 | 36950 ft | 414 kts | 182° |
| 2026-05-04 08:27 | 53.66008 | 13.99751 | 36937 ft | 414 kts | 181° |
| 2026-05-04 08:28 | 53.60252 | 14.00348 | 36955 ft | 415 kts | 181° |
| 2026-05-04 08:28 | 53.54495 | 14.00948 | 36958 ft | 415 kts | 181° |
| 2026-05-04 08:29 | 53.48767 | 14.01541 | 36967 ft | 415 kts | 181° |
| 2026-05-04 08:31 | 53.25694 | 14.03921 | 36970 ft | 416 kts | 181° |
| 2026-05-04 08:33 | 53.02612 | 14.06291 | 36979 ft | 416 kts | 181° |
| 2026-05-04 08:35 | 52.79537 | 14.08613 | 36983 ft | 415 kts | 181° |
| 2026-05-04 08:35 | 52.73770 | 14.09196 | 36986 ft | 415 kts | 181° |
| 2026-05-04 08:37 | 52.53623 | 14.11207 | 36973 ft | 415 kts | 181° |
| 2026-05-04 08:38 | 52.47858 | 14.11784 | 36985 ft | 415 kts | 181° |
| 2026-05-04 08:38 | 52.42084 | 14.12354 | 36985 ft | 415 kts | 181° |
| 2026-05-04 08:40 | 52.19062 | 14.14602 | 37014 ft | 416 kts | 181° |
| 2026-05-04 08:41 | 52.13281 | 14.15171 | 36995 ft | 416 kts | 181° |
| 2026-05-04 08:41 | 52.07507 | 14.15731 | 37007 ft | 416 kts | 181° |
| 2026-05-04 08:42 | 52.01729 | 14.16289 | 37012 ft | 416 kts | 181° |
| 2026-05-04 08:42 | 51.95949 | 14.16861 | 37014 ft | 416 kts | 181° |
| 2026-05-04 08:43 | 51.90210 | 14.17416 | 37004 ft | 416 kts | 181° |
| 2026-05-04 08:43 | 51.84430 | 14.18333 | 37011 ft | 418 kts | 177° |
| 2026-05-04 08:44 | 51.78659 | 14.19621 | 37021 ft | 419 kts | 176° |
| 2026-05-04 08:46 | 51.55567 | 14.24390 | 37022 ft | 419 kts | 177° |
| 2026-05-04 08:46 | 51.49781 | 14.25555 | 37027 ft | 419 kts | 177° |
| 2026-05-04 08:47 | 51.44031 | 14.26714 | 37026 ft | 419 kts | 177° |
| 2026-05-04 08:47 | 51.38237 | 14.27878 | 37021 ft | 419 kts | 177° |
| 2026-05-04 08:48 | 51.32445 | 14.29036 | 37026 ft | 420 kts | 177° |
| 2026-05-04 08:48 | 51.26651 | 14.30196 | 37028 ft | 419 kts | 177° |
| 2026-05-04 08:49 | 51.20897 | 14.31343 | 37033 ft | 419 kts | 177° |
| 2026-05-04 08:50 | 51.00589 | 14.35353 | 37020 ft | 422 kts | 177° |
| 2026-05-04 08:51 | 50.94801 | 14.36488 | 37018 ft | 422 kts | 177° |
| 2026-05-04 08:51 | 50.89002 | 14.38294 | 37019 ft | 426 kts | 171° |
| 2026-05-04 08:52 | 50.83233 | 14.40446 | 37035 ft | 426 kts | 171° |
| 2026-05-04 08:52 | 50.77459 | 14.42584 | 37039 ft | 426 kts | 171° |
| 2026-05-04 08:54 | 50.54375 | 14.51094 | 37046 ft | 427 kts | 171° |
| 2026-05-04 08:55 | 50.48658 | 14.53421 | 37036 ft | 431 kts | 162° |
| 2026-05-04 08:55 | 50.43455 | 14.58210 | 37028 ft | 441 kts | 142° |
| 2026-05-04 09:01 | 49.96762 | 15.28115 | 37033 ft | 444 kts | 140° |
| 2026-05-04 09:01 | 49.92315 | 15.34679 | 37031 ft | 444 kts | 140° |
| 2026-05-04 09:02 | 49.87825 | 15.41279 | 37033 ft | 445 kts | 140° |
| 2026-05-04 09:02 | 49.83334 | 15.47868 | 36947 ft | 446 kts | 140° |
| 2026-05-04 09:02 | 49.81082 | 15.51167 | 36681 ft | 445 kts | 140° |
| 2026-05-04 09:03 | 49.78839 | 15.54447 | 36421 ft | 445 kts | 140° |
| 2026-05-04 09:03 | 49.76587 | 15.57736 | 36149 ft | 446 kts | 139° |
| 2026-05-04 09:03 | 49.74338 | 15.61015 | 35886 ft | 443 kts | 139° |
| 2026-05-04 09:03 | 49.72102 | 15.64275 | 35444 ft | 440 kts | 139° |
| 2026-05-04 09:04 | 49.69912 | 15.67467 | 34995 ft | 438 kts | 139° |
| 2026-05-04 09:04 | 49.67695 | 15.70689 | 34518 ft | 436 kts | 139° |
| 2026-05-04 09:04 | 49.65487 | 15.73890 | 34049 ft | 435 kts | 139° |
| 2026-05-04 09:04 | 49.63286 | 15.77076 | 33522 ft | 433 kts | 139° |
| 2026-05-04 09:05 | 49.61100 | 15.80239 | 33048 ft | 429 kts | 139° |
| 2026-05-04 09:05 | 49.58930 | 15.83377 | 32578 ft | 426 kts | 139° |
| 2026-05-04 09:05 | 49.56775 | 15.86491 | 32107 ft | 424 kts | 139° |
| 2026-05-04 09:05 | 49.54633 | 15.89577 | 31635 ft | 421 kts | 139° |
| 2026-05-04 09:06 | 49.52529 | 15.92603 | 31201 ft | 418 kts | 139° |
| 2026-05-04 09:07 | 49.38006 | 16.13407 | 28224 ft | 398 kts | 139° |
| 2026-05-04 09:08 | 49.35984 | 16.16285 | 27826 ft | 395 kts | 139° |
| 2026-05-04 09:08 | 49.33972 | 16.19146 | 27419 ft | 393 kts | 139° |
| 2026-05-04 09:08 | 49.31961 | 16.21972 | 27017 ft | 391 kts | 142° |
| 2026-05-04 09:08 | 49.29754 | 16.24358 | 26621 ft | 386 kts | 153° |
| 2026-05-04 09:09 | 49.27363 | 16.26191 | 26225 ft | 383 kts | 157° |
| 2026-05-04 09:09 | 49.24964 | 16.27964 | 25814 ft | 382 kts | 156° |
| 2026-05-04 09:09 | 49.22578 | 16.29734 | 25397 ft | 381 kts | 156° |
| 2026-05-04 09:09 | 49.20995 | 16.30908 | 25137 ft | 380 kts | 156° |
| 2026-05-04 09:10 | 49.17848 | 16.33244 | 24565 ft | 379 kts | 156° |
| 2026-05-04 09:10 | 49.15477 | 16.34997 | 24135 ft | 379 kts | 156° |
| 2026-05-04 09:10 | 49.13103 | 16.36747 | 23694 ft | 379 kts | 156° |
| 2026-05-04 09:10 | 49.10729 | 16.38492 | 23203 ft | 378 kts | 156° |
| 2026-05-04 09:11 | 49.09162 | 16.39645 | 22908 ft | 376 kts | 156° |
| 2026-05-04 09:11 | 49.06030 | 16.41953 | 22331 ft | 372 kts | 156° |
| 2026-05-04 09:11 | 49.04489 | 16.43089 | 22045 ft | 370 kts | 156° |
| 2026-05-04 09:11 | 49.02181 | 16.44787 | 21606 ft | 367 kts | 156° |
| 2026-05-04 09:12 | 48.99893 | 16.46468 | 21174 ft | 364 kts | 157° |
| 2026-05-04 09:12 | 48.97624 | 16.48131 | 20756 ft | 360 kts | 156° |
| 2026-05-04 09:14 | 48.82787 | 16.58954 | 17863 ft | 329 kts | 157° |
| 2026-05-04 09:14 | 48.80731 | 16.60450 | 17469 ft | 326 kts | 157° |
| 2026-05-04 09:14 | 48.77985 | 16.62222 | 16910 ft | 322 kts | 167° |
| 2026-05-04 09:14 | 48.76523 | 16.62733 | 16759 ft | 316 kts | 171° |
| 2026-05-04 09:15 | 48.74397 | 16.63423 | 16517 ft | 310 kts | 170° |
| 2026-05-04 09:15 | 48.72329 | 16.64103 | 16282 ft | 308 kts | 170° |
| 2026-05-04 09:15 | 48.70244 | 16.64794 | 16037 ft | 305 kts | 170° |
| 2026-05-04 09:15 | 48.68171 | 16.65481 | 15791 ft | 305 kts | 171° |
| 2026-05-04 09:17 | 48.52509 | 16.64142 | 13275 ft | 288 kts | 213° |
| 2026-05-04 09:18 | 48.50833 | 16.62489 | 12922 ft | 288 kts | 213° |
| 2026-05-04 09:18 | 48.49156 | 16.60842 | 12559 ft | 287 kts | 213° |
| 2026-05-04 09:18 | 48.47485 | 16.59207 | 12203 ft | 286 kts | 213° |
| 2026-05-04 09:18 | 48.45824 | 16.57582 | 11850 ft | 285 kts | 213° |
| 2026-05-04 09:19 | 48.44164 | 16.55958 | 11504 ft | 284 kts | 213° |
| 2026-05-04 09:19 | 48.42528 | 16.54360 | 11164 ft | 285 kts | 212° |
| 2026-05-04 09:19 | 48.40869 | 16.52738 | 10814 ft | 283 kts | 213° |
| 2026-05-04 09:19 | 48.39233 | 16.51142 | 10488 ft | 279 kts | 212° |
| 2026-05-04 09:20 | 48.37611 | 16.49560 | 10180 ft | 278 kts | 212° |
| 2026-05-04 09:20 | 48.35992 | 16.47987 | 9866 ft | 276 kts | 212° |
| 2026-05-04 09:20 | 48.34388 | 16.46422 | 9521 ft | 274 kts | 214° |
| 2026-05-04 09:20 | 48.32985 | 16.44502 | 9177 ft | 275 kts | 230° |
| 2026-05-04 09:21 | 48.32012 | 16.42030 | 8852 ft | 277 kts | 246° |
| 2026-05-04 09:21 | 48.31558 | 16.39221 | 8524 ft | 279 kts | 262° |
| 2026-05-04 09:21 | 48.31389 | 16.36352 | 8199 ft | 279 kts | 262° |
| 2026-05-04 09:21 | 48.31217 | 16.33456 | 7871 ft | 278 kts | 263° |
| 2026-05-04 09:22 | 48.31044 | 16.30576 | 7553 ft | 277 kts | 262° |
| 2026-05-04 09:22 | 48.30879 | 16.27685 | 7235 ft | 278 kts | 265° |
| 2026-05-04 09:22 | 48.31050 | 16.24784 | 6918 ft | 282 kts | 281° |
| 2026-05-04 09:22 | 48.31725 | 16.22019 | 6613 ft | 282 kts | 295° |
| 2026-05-04 09:23 | 48.32599 | 16.19382 | 6282 ft | 282 kts | 291° |
| 2026-05-04 09:23 | 48.33450 | 16.16764 | 5939 ft | 274 kts | 293° |
| 2026-05-04 09:23 | 48.34115 | 16.14178 | 5621 ft | 257 kts | 277° |
| 2026-05-04 09:23 | 48.34148 | 16.11666 | 5495 ft | 234 kts | 257° |
| 2026-05-04 09:25 | 48.25753 | 16.09864 | 4987 ft | 244 kts | 116° |
| 2026-05-04 09:25 | 48.25129 | 16.12232 | 4995 ft | 244 kts | 112° |
| 2026-05-04 09:26 | 48.24522 | 16.14619 | 4998 ft | 246 kts | 110° |
| 2026-05-04 09:26 | 48.23946 | 16.17028 | 4999 ft | 246 kts | 114° |
| 2026-05-04 09:26 | 48.23251 | 16.19364 | 5000 ft | 247 kts | 117° |
| 2026-05-04 09:26 | 48.22514 | 16.21657 | 4995 ft | 238 kts | 117° |
| 2026-05-04 09:27 | 48.21810 | 16.23839 | 4875 ft | 230 kts | 117° |
| 2026-05-04 09:27 | 48.21117 | 16.25990 | 4599 ft | 229 kts | 119° |
| 2026-05-04 09:27 | 48.20422 | 16.28150 | 4301 ft | 232 kts | 117° |
| 2026-05-04 09:27 | 48.19726 | 16.30312 | 3980 ft | 234 kts | 118° |
| 2026-05-04 09:28 | 48.19018 | 16.32511 | 3672 ft | 235 kts | 117° |
| 2026-05-04 09:28 | 48.18306 | 16.34721 | 3364 ft | 235 kts | 117° |
| 2026-05-04 09:28 | 48.17606 | 16.36890 | 3037 ft | 226 kts | 117° |
| 2026-05-04 09:28 | 48.16939 | 16.38957 | 2737 ft | 215 kts | 117° |
| 2026-05-04 09:29 | 48.16305 | 16.40919 | 2446 ft | 203 kts | 118° |
| 2026-05-04 09:29 | 48.15712 | 16.42753 | 2207 ft | 190 kts | 118° |
| 2026-05-04 09:29 | 48.15157 | 16.44470 | 1922 ft | 177 kts | 121° |
| 2026-05-04 09:29 | 48.14653 | 16.46030 | 1688 ft | 160 kts | 121° |
| 2026-05-04 09:30 | 48.14190 | 16.47459 | 1471 ft | 147 kts | 120° |
| 2026-05-04 09:30 | 48.13758 | 16.48808 | 1279 ft | 142 kts | 121° |
| 2026-05-04 09:30 | 48.13322 | 16.50112 | 1089 ft | 141 kts | 122° |
| 2026-05-04 09:30 | 48.12898 | 16.51437 | 918 ft | 141 kts | 118° |
| 2026-05-04 09:31 | 48.12478 | 16.52733 | 728 ft | 141 kts | 120° |
| 2026-05-04 09:31 | 48.12053 | 16.54034 | 622 ft | 130 kts | 115° |
| 2026-05-04 09:31 | 48.11737 | 16.55009 | 617 ft | 65 kts | 116° |
| 2026-05-04 09:31 | 48.11572 | 16.55517 | 616 ft | 38 kts | 116° |
| 2026-05-04 09:32 | 48.11503 | 16.55803 | 609 ft | 25 kts | 97° |
| 2026-05-04 09:32 | 48.11505 | 16.56022 | 609 ft | 15 kts | 84° |
| 2026-05-04 09:34 | 48.11534 | 16.56557 | 617 ft | 11 kts | 116° |
| 2026-05-04 09:34 | 48.11496 | 16.56673 | 615 ft | 14 kts | 116° |
| 2026-05-04 09:34 | 48.11459 | 16.56790 | 612 ft | 9 kts | 115° |
| 2026-05-04 09:34 | 48.11479 | 16.56880 | 615 ft | 11 kts | 31° |
| 2026-05-04 09:35 | 48.11545 | 16.56921 | 612 ft | 9 kts | 9° |
| 2026-05-04 09:35 | 48.11591 | 16.56881 | 615 ft | 9 kts | 301° |
| 2026-05-04 09:35 | 48.11620 | 16.56792 | 619 ft | 9 kts | 295° |
| 2026-05-04 09:35 | 48.11643 | 16.56720 | 611 ft | 6 kts | 295° |
| 2026-05-04 09:37 | 48.11729 | 16.56738 | 609 ft | 0 kts | 26° |